createdAt,value
2018-06-09T00:02:19.069Z,58.07
2018-06-09T00:04:47.387Z,51.80
2018-06-09T00:07:15.689Z,45.83
2018-06-09T00:09:44.009Z,46.90
2018-06-09T00:12:12.394Z,51.63
2018-06-09T00:14:40.732Z,52.27
2018-06-09T00:17:09.068Z,44.90
2018-06-09T00:19:37.457Z,47.13
2018-06-09T00:22:05.743Z,53.60
2018-06-09T00:24:34.057Z,53.83
2018-06-09T00:27:02.392Z,55.47
2018-06-09T00:29:30.759Z,55.87
2018-06-09T00:31:59.076Z,49.90
2018-06-09T00:34:27.432Z,46.47
2018-06-09T00:36:55.795Z,50.60
2018-06-09T00:39:23.848Z,45.47
2018-06-09T00:41:52.157Z,51.37
2018-06-09T00:44:20.579Z,48.97
2018-06-09T00:46:48.896Z,47.70
2018-06-09T00:49:17.240Z,50.17
2018-06-09T00:51:45.577Z,54.33
2018-06-09T00:54:13.919Z,51.60
2018-06-09T00:56:47.469Z,52.27
2018-06-09T00:59:15.808Z,54.90
2018-06-09T01:01:44.156Z,53.13
2018-06-09T01:04:12.498Z,51.87
2018-06-09T01:06:40.824Z,51.17
2018-06-09T01:09:09.330Z,47.80
2018-06-09T01:11:37.728Z,50.73
2018-06-09T01:14:06.106Z,50.33
2018-06-09T01:16:34.449Z,49.20
2018-06-09T01:19:02.812Z,53.63
2018-06-09T01:21:31.125Z,55.97
2018-06-09T01:23:59.491Z,51.97
2018-06-09T01:26:27.853Z,50.07
2018-06-09T01:28:56.177Z,48.13
2018-06-09T01:31:24.498Z,45.37
2018-06-09T01:33:52.843Z,49.10
2018-06-09T01:36:21.166Z,48.53
2018-06-09T01:38:49.231Z,52.17
2018-06-09T01:41:17.568Z,52.90
2018-06-09T01:43:45.906Z,52.30
2018-06-09T01:46:14.252Z,55.07
2018-06-09T01:48:42.603Z,54.00
2018-06-09T01:51:10.944Z,48.83
2018-06-09T01:53:39.284Z,54.20
2018-06-09T01:56:07.677Z,54.67
2018-06-09T01:58:35.985Z,55.20
2018-06-09T02:01:04.323Z,54.87
2018-06-09T02:03:32.648Z,54.60
2018-06-09T02:06:01.002Z,52.57
2018-06-09T02:08:29.322Z,51.57
2018-06-09T02:10:57.661Z,53.53
2018-06-09T02:13:25.978Z,53.57
2018-06-09T02:15:54.334Z,50.07
2018-06-09T02:18:22.684Z,51.17
2018-06-09T02:20:51.036Z,50.53
2018-06-09T02:23:19.379Z,48.87
2018-06-09T02:25:47.743Z,46.47
2018-06-09T02:28:16.153Z,46.27
2018-06-09T02:30:44.464Z,43.20
2018-06-09T02:33:12.790Z,44.83
2018-06-09T02:35:41.177Z,45.73
2018-06-09T02:38:09.507Z,45.40
2018-06-09T02:40:37.838Z,45.67
2018-06-09T02:43:06.175Z,49.40
2018-06-09T02:45:34.554Z,47.20
2018-06-09T02:48:02.918Z,47.97
2018-06-09T02:50:31.249Z,50.23
2018-06-09T02:52:59.582Z,50.20
2018-06-09T02:55:27.922Z,48.83
2018-06-09T02:57:56.269Z,51.97
2018-06-09T03:00:24.642Z,47.33
2018-06-09T03:02:53.241Z,52.97
2018-06-09T03:05:21.582Z,52.30
2018-06-09T03:07:49.944Z,50.33
2018-06-09T03:10:18.273Z,51.17
2018-06-09T03:12:46.629Z,49.80
2018-06-09T03:15:14.965Z,48.20
2018-06-09T03:17:43.285Z,49.50
2018-06-09T03:20:11.632Z,51.47
2018-06-09T03:22:39.949Z,44.10
2018-06-09T03:25:08.302Z,50.67
2018-06-09T03:27:36.633Z,52.27
2018-06-09T03:30:05.017Z,49.33
2018-06-09T03:32:33.442Z,49.47
2018-06-09T03:35:01.729Z,49.90
2018-06-09T03:37:30.065Z,50.40
2018-06-09T03:39:58.390Z,52.67
2018-06-09T03:45:01.486Z,61.00
2018-06-09T03:47:29.833Z,60.40
2018-06-09T03:49:58.293Z,58.40
2018-06-09T03:52:31.863Z,55.90
2018-06-09T03:55:00.208Z,55.37
2018-06-09T03:57:28.553Z,59.13
2018-06-09T03:59:56.903Z,61.60
2018-06-09T04:02:25.241Z,59.33
2018-06-09T04:04:53.622Z,60.17
2018-06-09T04:07:21.941Z,58.80
2018-06-09T04:09:50.255Z,57.70
2018-06-09T04:12:18.633Z,57.50
2018-06-09T04:14:47.006Z,60.93
2018-06-09T04:17:15.335Z,60.93
2018-06-09T04:19:43.684Z,60.10
2018-06-09T04:22:12.009Z,64.23
2018-06-09T04:24:40.325Z,56.43
2018-06-09T04:27:08.688Z,57.60
2018-06-09T04:29:37.022Z,49.20
2018-06-09T04:32:05.349Z,51.40
2018-06-09T04:34:33.657Z,49.23
2018-06-09T04:37:02.005Z,46.43
2018-06-09T04:39:30.317Z,49.37
2018-06-09T04:41:58.653Z,50.57
2018-06-09T04:44:26.981Z,46.70
2018-06-09T04:46:55.328Z,50.27
2018-06-09T04:49:23.645Z,54.83
2018-06-09T04:51:52.038Z,53.07
2018-06-09T04:54:20.364Z,52.57
2018-06-09T04:56:48.701Z,54.93
2018-06-09T04:59:17.096Z,52.13
2018-06-09T05:01:45.407Z,51.57
2018-06-09T05:04:15.813Z,59.60
2018-06-09T05:06:45.225Z,61.00
2018-06-09T05:09:14.017Z,63.33
2018-06-09T05:11:42.974Z,63.57
2018-06-09T05:14:11.605Z,72.37
2018-06-09T05:16:41.837Z,63.80
2018-06-09T05:19:11.427Z,61.50
2018-06-09T05:21:40.548Z,66.13
2018-06-09T05:24:10.257Z,71.40
2018-06-09T05:26:39.744Z,63.57
2018-06-09T05:29:09.609Z,72.03
2018-06-09T05:31:38.917Z,70.23
2018-06-09T05:34:07.241Z,72.60
2018-06-09T05:36:38.331Z,71.33
2018-06-09T05:39:08.772Z,70.07
2018-06-09T05:41:37.737Z,70.80
2018-06-09T05:44:07.381Z,68.53
2018-06-09T05:46:37.674Z,74.00
2018-06-09T05:49:07.174Z,67.83
2018-06-09T05:51:36.826Z,67.30
2018-06-09T05:54:06.253Z,67.03
2018-06-09T05:56:35.109Z,41.67
2018-06-09T05:59:09.309Z,67.17
2018-06-09T06:01:39.765Z,65.27
2018-06-09T06:04:10.043Z,70.30
2018-06-09T06:06:39.145Z,64.17
2018-06-09T06:09:09.613Z,69.63
2018-06-09T06:11:38.780Z,60.40
2018-06-09T06:14:07.163Z,62.87
2018-06-09T06:16:36.426Z,69.87
2018-06-09T06:19:05.294Z,67.00
2018-06-09T06:21:33.955Z,71.50
2018-06-09T06:24:03.537Z,73.53
2018-06-09T06:26:32.682Z,73.50
2018-06-09T06:29:01.805Z,76.73
2018-06-09T06:31:31.076Z,73.90
2018-06-09T06:33:59.410Z,76.60
2018-06-09T06:36:28.397Z,75.50
2018-06-09T06:38:58.199Z,72.97
2018-06-09T06:41:28.603Z,73.07
2018-06-09T06:43:58.642Z,67.47
2018-06-09T06:46:28.070Z,62.07
2018-06-09T06:48:57.488Z,62.77
2018-06-09T06:51:27.356Z,58.90
2018-06-09T06:53:57.834Z,66.47
2018-06-09T06:56:27.091Z,65.70
2018-06-09T06:58:59.399Z,60.37
2018-06-09T07:01:29.627Z,68.30
2018-06-09T07:03:58.058Z,64.03
2018-06-09T07:06:27.374Z,63.97
2018-06-09T07:08:56.653Z,62.07
2018-06-09T07:11:26.703Z,66.13
2018-06-09T07:13:55.854Z,64.20
2018-06-09T07:16:24.854Z,64.37
2018-06-09T07:18:54.912Z,66.37
2018-06-09T07:21:24.182Z,66.57
2018-06-09T07:23:52.566Z,64.80
2018-06-09T07:26:21.870Z,63.27
2018-06-09T07:28:51.751Z,60.57
2018-06-09T07:31:21.755Z,59.20
2018-06-09T07:33:51.377Z,58.10
2018-06-09T07:36:20.554Z,57.07
2018-06-09T07:38:50.319Z,55.53
2018-06-09T07:41:19.157Z,55.07
2018-06-09T07:43:47.696Z,54.50
2018-06-09T07:46:17.079Z,53.13
2018-06-09T07:48:46.837Z,51.20
2018-06-09T07:51:15.824Z,50.03
2018-06-09T07:53:44.152Z,50.10
2018-06-09T07:56:13.077Z,49.33
2018-06-09T07:58:42.569Z,48.80
2018-06-09T08:01:11.775Z,47.83
2018-06-09T08:03:44.073Z,46.40
2018-06-09T08:06:12.947Z,48.60
2018-06-09T08:08:41.794Z,47.63
2018-06-09T08:11:11.251Z,47.90
2018-06-09T08:13:39.563Z,46.23
2018-06-09T08:16:08.891Z,47.17
2018-06-09T08:18:37.725Z,49.93
2018-06-09T08:21:07.202Z,50.00
2018-06-09T08:23:35.636Z,50.07
2018-06-09T08:26:06.551Z,48.17
2018-06-09T08:28:35.748Z,47.87
2018-06-09T08:31:04.102Z,47.93
2018-06-09T08:33:32.481Z,46.27
2018-06-09T08:36:01.887Z,46.60
2018-06-09T08:38:30.795Z,42.97
2018-06-09T08:41:01.806Z,44.37
2018-06-09T08:43:30.174Z,41.60
2018-06-09T08:45:59.051Z,44.07
2018-06-09T08:48:28.127Z,43.57
2018-06-09T08:50:57.397Z,39.97
2018-06-09T08:53:25.961Z,41.27
2018-06-09T08:55:55.913Z,38.97
2018-06-09T08:58:24.928Z,39.63
2018-06-09T09:00:53.662Z,41.37
2018-06-09T09:03:23.191Z,39.40
2018-06-09T09:05:51.577Z,36.17
2018-06-09T09:08:20.466Z,34.90
2018-06-09T09:10:49.667Z,33.33
2018-06-09T09:13:18.572Z,34.50
2018-06-09T09:15:48.263Z,34.17
2018-06-09T09:18:17.776Z,33.90
2018-06-09T09:20:46.542Z,31.80
2018-06-09T09:23:14.766Z,33.67
2018-06-09T09:25:43.990Z,29.03
2018-06-09T09:28:13.079Z,30.40
2018-06-09T09:30:42.304Z,32.07
2018-06-09T09:33:11.503Z,31.27
2018-06-09T09:35:40.504Z,29.87
2018-06-09T09:38:10.270Z,29.73
2018-06-09T09:40:39.371Z,31.07
2018-06-09T09:43:08.061Z,31.50
2018-06-09T09:45:36.934Z,33.70
2018-06-09T09:48:06.973Z,30.93
2018-06-09T09:50:35.945Z,29.90
2018-06-09T09:53:05.073Z,30.60
2018-06-09T09:55:34.005Z,27.87
2018-06-09T09:58:03.489Z,26.40
2018-06-09T10:00:38.124Z,24.60
2018-06-09T10:03:07.357Z,26.70
2018-06-09T10:05:36.612Z,24.03
2018-06-09T10:08:05.452Z,26.03
2018-06-09T10:10:35.026Z,24.70
2018-06-09T10:13:04.489Z,24.43
2018-06-09T10:15:34.585Z,24.37
2018-06-09T10:18:03.593Z,25.90
2018-06-09T10:20:33.280Z,26.03
2018-06-09T10:23:02.134Z,25.60
2018-06-09T10:25:31.077Z,23.17
2018-06-09T10:28:00.609Z,24.60
2018-06-09T10:30:30.140Z,22.33
2018-06-09T10:33:02.595Z,24.50
2018-06-09T10:35:32.227Z,19.37
2018-06-09T10:38:01.512Z,20.83
2018-06-09T10:40:30.514Z,20.73
2018-06-09T10:42:59.210Z,25.30
2018-06-09T10:45:28.095Z,22.30
2018-06-09T10:47:57.162Z,18.97
2018-06-09T10:50:26.076Z,18.83
2018-06-09T10:52:55.454Z,20.73
2018-06-09T10:55:24.541Z,17.33
2018-06-09T10:57:54.135Z,17.80
2018-06-09T11:00:22.981Z,17.37
2018-06-09T11:02:52.112Z,18.47
2018-06-09T11:05:20.977Z,17.87
2018-06-09T11:07:50.054Z,19.17
2018-06-09T11:10:19.687Z,19.00
2018-06-09T11:12:49.916Z,19.13
2018-06-09T11:15:18.970Z,18.97
2018-06-09T11:17:48.710Z,19.73
2018-06-09T11:20:18.589Z,19.63
2018-06-09T11:22:47.642Z,19.07
2018-06-09T11:25:16.605Z,18.53
2018-06-09T11:27:46.394Z,17.33
2018-06-09T11:30:15.913Z,19.47
2018-06-09T11:32:44.781Z,17.37
2018-06-09T11:35:14.228Z,17.63
2018-06-09T11:37:43.601Z,18.83
2018-06-09T11:40:13.422Z,18.73
2018-06-09T11:42:42.127Z,19.77
2018-06-09T11:45:11.048Z,19.30
2018-06-09T11:47:40.701Z,19.10
2018-06-09T11:50:09.477Z,18.83
2018-06-09T11:52:38.618Z,19.67
2018-06-09T11:55:07.817Z,18.90
2018-06-09T11:57:37.111Z,19.80
2018-06-09T12:00:06.629Z,19.40
2018-06-09T12:02:37.006Z,17.83
2018-06-09T12:05:05.905Z,17.40
2018-06-09T12:07:34.830Z,19.30
2018-06-09T12:10:03.765Z,17.77
2018-06-09T12:12:32.542Z,17.03
2018-06-09T12:15:01.388Z,17.33
2018-06-09T12:17:32.340Z,17.37
2018-06-09T12:20:01.425Z,16.93
2018-06-09T12:22:30.604Z,16.77
2018-06-09T12:25:00.136Z,18.07
2018-06-09T12:27:29.143Z,18.17
2018-06-09T12:29:58.399Z,17.87
2018-06-09T12:32:27.852Z,19.17
2018-06-09T12:34:56.664Z,18.93
2018-06-09T12:37:26.516Z,18.77
2018-06-09T12:39:55.442Z,19.20
2018-06-09T12:42:24.805Z,17.60
2018-06-09T12:44:53.831Z,19.97
2018-06-09T12:47:22.588Z,19.50
2018-06-09T12:49:52.335Z,19.03
2018-06-09T12:52:21.184Z,20.37
2018-06-09T12:54:50.726Z,18.60
2018-06-09T12:57:19.841Z,19.13
2018-06-09T12:59:50.385Z,19.37
2018-06-09T13:02:19.841Z,20.47
2018-06-09T13:04:48.593Z,19.00
2018-06-09T13:07:17.549Z,18.63
2018-06-09T13:09:47.087Z,21.17
2018-06-09T13:12:15.710Z,22.47
2018-06-09T13:14:44.827Z,20.60
2018-06-09T13:17:14.051Z,21.40
2018-06-09T13:19:43.872Z,22.10
2018-06-09T13:22:15.753Z,21.33
2018-06-09T13:24:44.627Z,20.17
2018-06-09T13:27:14.256Z,20.23
2018-06-09T13:29:43.195Z,19.47
2018-06-09T13:32:12.955Z,21.10
2018-06-09T13:34:41.845Z,20.83
2018-06-09T13:37:11.729Z,20.20
2018-06-09T13:39:40.930Z,19.77
2018-06-09T13:42:09.835Z,18.90
2018-06-09T13:44:38.862Z,18.67
2018-06-09T13:47:07.671Z,18.47
2018-06-09T13:49:36.437Z,18.70
2018-06-09T13:52:05.579Z,18.13
2018-06-09T13:54:33.955Z,17.57
2018-06-09T13:57:03.771Z,17.30
2018-06-09T13:59:33.164Z,17.70
2018-06-09T14:02:01.986Z,17.33
2018-06-09T14:04:31.860Z,18.60
2018-06-09T14:07:01.419Z,18.30
2018-06-09T14:09:30.335Z,19.07
2018-06-09T14:12:00.107Z,18.83
2018-06-09T14:14:29.054Z,24.40
2018-06-09T14:16:59.495Z,25.33
2018-06-09T14:19:28.401Z,24.73
2018-06-09T14:21:57.558Z,23.97
2018-06-09T14:24:26.185Z,22.60
2018-06-09T14:26:55.116Z,25.83
2018-06-09T14:29:23.908Z,22.73
2018-06-09T14:31:56.841Z,22.03
2018-06-09T14:34:26.394Z,20.63
2018-06-09T14:36:55.243Z,20.13
2018-06-09T14:39:24.176Z,19.40
2018-06-09T14:41:54.166Z,20.93
2018-06-09T14:44:23.778Z,20.57
2018-06-09T14:46:53.114Z,21.10
2018-06-09T14:49:22.159Z,20.37
2018-06-09T14:51:51.193Z,21.40
2018-06-09T14:54:21.271Z,20.47
2018-06-09T14:56:50.194Z,20.63
2018-06-09T14:59:18.874Z,21.30
2018-06-09T15:01:47.844Z,19.40
2018-06-09T15:04:16.513Z,17.00
2018-06-09T15:06:45.080Z,21.10
2018-06-09T15:09:13.676Z,19.93
2018-06-09T15:11:42.006Z,21.43
2018-06-09T15:14:12.420Z,23.87
2018-06-09T15:16:41.157Z,22.57
2018-06-09T15:19:09.457Z,21.43
2018-06-09T15:21:38.257Z,20.63
2018-06-09T15:24:11.676Z,23.10
2018-06-09T15:26:40.535Z,21.20
2018-06-09T15:29:09.563Z,22.33
2018-06-09T15:31:39.127Z,25.77
2018-06-09T15:34:08.374Z,26.70
2018-06-09T15:36:37.697Z,26.97
2018-06-09T15:39:09.344Z,26.47
2018-06-09T15:41:38.313Z,26.77
2018-06-09T15:44:07.109Z,27.37
2018-06-09T15:46:36.384Z,27.53
2018-06-09T15:49:05.324Z,26.17
2018-06-09T15:51:36.151Z,23.97
2018-06-09T15:54:06.015Z,23.53
2018-06-09T15:56:35.110Z,22.57
2018-06-09T15:59:04.282Z,22.03
2018-06-09T16:01:35.954Z,21.10
2018-06-09T16:04:04.438Z,20.90
2018-06-09T16:06:34.526Z,19.50
2018-06-09T16:09:03.969Z,20.33
2018-06-09T16:11:32.898Z,18.27
2018-06-09T16:14:01.354Z,19.50
2018-06-09T16:16:31.525Z,18.93
2018-06-09T16:19:01.063Z,19.27
2018-06-09T16:21:29.839Z,18.83
2018-06-09T16:23:58.160Z,19.57
2018-06-09T16:26:27.891Z,17.80
2018-06-09T16:28:59.129Z,16.37
2018-06-09T16:31:28.022Z,15.80
2018-06-09T16:33:56.329Z,14.93
2018-06-09T16:36:25.119Z,14.80
2018-06-09T16:38:54.607Z,14.03
2018-06-09T16:41:23.995Z,14.00
2018-06-09T16:43:52.327Z,16.07
2018-06-09T16:46:21.270Z,15.97
2018-06-09T16:48:50.224Z,15.63
2018-06-09T16:51:20.640Z,14.73
2018-06-09T16:53:50.987Z,15.00
2018-06-09T16:56:19.718Z,15.07
2018-06-09T16:58:48.837Z,16.17
2018-06-09T17:01:17.871Z,15.70
2018-06-09T17:03:46.231Z,14.03
2018-06-09T17:06:15.456Z,15.33
2018-06-09T17:08:46.248Z,15.60
2018-06-09T17:11:15.023Z,15.63
2018-06-09T17:13:43.859Z,14.83
2018-06-09T17:16:13.706Z,15.37
2018-06-09T17:18:43.576Z,14.30
2018-06-09T17:21:18.853Z,15.00
2018-06-09T17:23:47.221Z,13.80
2018-06-09T17:26:16.575Z,14.27
2018-06-09T17:28:45.461Z,13.33
2018-06-09T17:31:14.899Z,12.50
2018-06-09T17:33:45.445Z,11.33
2018-06-09T17:36:14.561Z,12.17
2018-06-09T17:38:44.227Z,13.13
2018-06-09T17:41:14.592Z,12.03
2018-06-09T17:43:42.947Z,12.93
2018-06-09T17:46:12.857Z,12.90
2018-06-09T17:48:43.822Z,12.40
2018-06-09T17:51:14.021Z,11.87
2018-06-09T17:53:42.374Z,13.30
2018-06-09T17:56:11.933Z,12.60
2018-06-09T17:58:40.753Z,12.77
2018-06-09T18:01:09.886Z,12.40
2018-06-09T18:03:39.452Z,11.63
2018-06-09T18:06:08.210Z,13.10
2018-06-09T18:08:37.232Z,11.67
2018-06-09T18:11:05.982Z,12.43
2018-06-09T18:13:34.338Z,12.23
2018-06-09T18:16:03.894Z,12.63
2018-06-09T18:18:32.653Z,12.30
2018-06-09T18:21:01.649Z,12.30
2018-06-09T18:23:29.994Z,11.07
2018-06-09T18:25:59.284Z,10.70
2018-06-09T18:28:27.677Z,11.33
2018-06-09T18:30:56.580Z,10.83
2018-06-09T18:33:25.083Z,10.97
2018-06-09T18:35:55.148Z,11.10
2018-06-09T18:38:23.664Z,11.90
2018-06-09T18:40:52.609Z,12.23
2018-06-09T18:43:21.218Z,11.70
2018-06-09T18:45:50.086Z,11.60
2018-06-09T18:48:18.847Z,13.50
2018-06-09T18:50:47.929Z,13.47
2018-06-09T18:53:16.491Z,15.43
2018-06-09T18:55:46.423Z,15.70
2018-06-09T18:58:15.241Z,15.47
2018-06-09T19:00:44.897Z,15.90
2018-06-09T19:03:13.558Z,16.33
2018-06-09T19:05:43.225Z,14.80
2018-06-09T19:08:12.492Z,14.87
2018-06-09T19:10:41.903Z,15.47
2018-06-09T19:13:11.389Z,15.50
2018-06-09T19:15:41.134Z,13.77
2018-06-09T19:18:09.853Z,13.47
2018-06-09T19:20:38.914Z,13.60
2018-06-09T19:23:07.768Z,13.93
2018-06-09T19:25:36.464Z,14.43
2018-06-09T19:28:05.514Z,15.33
2018-06-09T19:30:34.773Z,14.77
2018-06-09T19:33:03.534Z,14.73
2018-06-09T19:35:32.256Z,14.20
2018-06-09T19:38:01.516Z,15.57
2018-06-09T19:40:30.137Z,15.37
2018-06-09T19:42:59.022Z,15.10
2018-06-09T19:45:27.843Z,14.50
2018-06-09T19:47:57.086Z,14.23
2018-06-09T19:50:25.972Z,14.83
2018-06-09T19:53:57.543Z,14.93
2018-06-09T19:56:26.394Z,15.37
2018-06-09T19:58:56.087Z,14.50
2018-06-09T20:01:25.322Z,15.03
2018-06-09T20:03:53.673Z,13.80
2018-06-09T20:06:22.653Z,14.30
2018-06-09T20:08:51.490Z,13.57
2018-06-09T20:11:20.228Z,15.17
2018-06-09T20:13:48.569Z,16.40
2018-06-09T20:16:18.187Z,16.80
2018-06-09T20:18:46.778Z,16.00
2018-06-09T20:21:17.358Z,16.07
2018-06-09T20:23:46.312Z,17.50
2018-06-09T20:26:16.400Z,18.03
2018-06-09T20:28:45.218Z,18.40
2018-06-09T20:31:13.508Z,18.93
2018-06-09T20:33:44.010Z,20.43
2018-06-09T20:36:13.409Z,20.57
2018-06-09T20:38:42.272Z,19.30
2018-06-09T20:41:11.745Z,20.30
2018-06-09T20:43:40.709Z,20.87
2018-06-09T20:46:12.648Z,20.37
2018-06-09T20:48:41.862Z,20.20
2018-06-09T20:51:11.036Z,22.63
2018-06-09T20:53:40.181Z,20.53
2018-06-09T20:56:08.897Z,21.13
2018-06-09T20:58:40.287Z,22.30
2018-06-09T21:01:09.887Z,22.90
2018-06-09T21:03:38.208Z,22.90
2018-06-09T21:06:07.481Z,22.50
2018-06-09T21:08:36.870Z,22.80
2018-06-09T21:11:06.327Z,21.60
2018-06-09T21:13:34.643Z,20.57
2018-06-09T21:16:04.060Z,21.70
2018-06-09T21:18:33.141Z,22.50
2018-06-09T21:21:02.847Z,25.40
2018-06-09T21:23:31.145Z,25.03
2018-06-09T21:26:00.034Z,24.03
2018-06-09T21:28:33.564Z,23.10
2018-06-09T21:31:07.648Z,23.83
2018-06-09T21:34:06.831Z,21.10
2018-06-09T21:36:41.356Z,20.37
2018-06-09T21:39:14.903Z,18.60
2018-06-09T21:41:45.323Z,18.53
2018-06-09T21:44:18.849Z,19.23
2018-06-09T21:46:49.734Z,19.63
2018-06-09T21:49:19.205Z,19.37
2018-06-09T21:51:48.120Z,20.67
2018-06-09T21:54:17.200Z,20.63
2018-06-09T21:56:47.954Z,20.60
2018-06-09T21:59:16.978Z,19.90
2018-06-09T22:01:45.358Z,21.43
2018-06-09T22:04:13.657Z,23.47
2018-06-09T22:06:42.014Z,47.27
2018-06-09T22:09:10.345Z,43.33
2018-06-09T22:11:38.685Z,32.87
2018-06-09T22:14:07.013Z,29.50
2018-06-09T22:16:35.348Z,25.07
2018-06-09T22:19:03.697Z,24.83
2018-06-09T22:21:32.049Z,22.90
2018-06-09T22:24:00.357Z,22.10
2018-06-09T22:26:29.623Z,24.13
2018-06-09T22:28:57.974Z,24.40
2018-06-09T22:31:26.314Z,25.90
2018-06-09T22:33:54.645Z,26.93
2018-06-09T22:36:22.982Z,24.77
2018-06-09T22:38:51.013Z,23.60
2018-06-09T22:41:19.342Z,22.63
2018-06-09T22:43:47.697Z,21.50
2018-06-09T22:46:16.060Z,19.60
2018-06-09T22:48:44.367Z,21.13
2018-06-09T22:51:12.779Z,21.97
2018-06-09T22:53:41.142Z,22.53
2018-06-09T22:56:09.478Z,21.77
2018-06-09T22:58:37.838Z,21.33
2018-06-09T23:01:06.265Z,22.43
2018-06-09T23:03:34.721Z,21.37
2018-06-09T23:06:03.142Z,22.67
2018-06-09T23:08:31.446Z,23.17
2018-06-09T23:10:59.791Z,22.90
2018-06-09T23:13:28.146Z,24.30
2018-06-09T23:15:56.469Z,23.80
2018-06-09T23:18:24.809Z,23.00
2018-06-09T23:20:53.134Z,22.67
2018-06-09T23:23:21.483Z,20.10
2018-06-09T23:25:49.811Z,23.00
2018-06-09T23:28:18.165Z,21.47
2018-06-09T23:30:46.552Z,21.60
2018-06-09T23:33:14.821Z,22.77
2018-06-09T23:35:43.152Z,23.17
2018-06-09T23:38:11.491Z,21.60
2018-06-09T23:40:39.824Z,21.37
2018-06-09T23:43:08.171Z,22.13
2018-06-09T23:45:36.473Z,21.60
2018-06-09T23:48:04.858Z,22.83
2018-06-09T23:50:33.174Z,22.60
2018-06-09T23:53:01.499Z,21.57
2018-06-09T23:55:29.812Z,23.23
2018-06-09T23:57:58.153Z,22.97
